Time;durP1;ratioP1;P1;durP2;ratioP2;P2;SDS_P1;SDS_P2;PMS_P1;PMS_P2;Temp;Humidity;BMP_temperature;BMP_pressure;BME280_temperature;BME280_humidity;BME280_pressure;Samples;Min_cycle;Max_cycle;Signal;HPM_P1;HPM_P2
2023/03/20 00:01:46;;;;;;;7.25;3.85;;;11.10;99.90;;;;;;5017705;28;20032;-68
2023/03/20 00:04:12;;;;;;;8.77;3.75;;;11.00;99.90;;;;;;5017522;28;20117;-68
2023/03/20 00:06:37;;;;;;;9.10;3.85;;;11.00;99.90;;;;;;5017651;28;20057;-68
2023/03/20 00:09:03;;;;;;;9.40;4.53;;;11.10;99.90;;;;;;5016845;28;20072;-68
2023/03/20 00:11:33;;;;;;;7.90;3.92;;;11.00;99.90;;;;;;5017342;28;20046;-68
2023/03/20 00:14:01;;;;;;;7.90;3.38;;;11.10;99.90;;;;;;5016937;28;20033;-68
2023/03/20 00:16:36;;;;;;;7.63;3.95;;;11.10;99.90;;;;;;5055934;22;20034;-67
2023/03/20 00:19:02;;;;;;;8.90;4.53;;;11.30;99.90;;;;;;5016606;28;20057;-67
2023/03/20 00:21:29;;;;;;;6.68;4.05;;;11.40;99.90;;;;;;5032997;28;20113;-68
2023/03/20 00:23:55;;;;;;;8.35;4.65;;;11.60;99.90;;;;;;5017682;28;20033;-67
2023/03/20 00:26:25;;;;;;;7.10;3.85;;;11.70;99.90;;;;;;5016893;28;20030;-67
2023/03/20 00:28:51;;;;;;;9.48;4.55;;;11.80;99.90;;;;;;5016478;28;20109;-67
2023/03/20 00:31:23;;;;;;;8.95;4.10;;;11.70;99.90;;;;;;5017223;28;20107;-67
2023/03/20 00:33:49;;;;;;;5.57;3.80;;;11.70;99.90;;;;;;5017164;28;20045;-67
2023/03/20 00:36:14;;;;;;;5.78;3.97;;;11.70;99.90;;;;;;5016293;28;20026;-67
2023/03/20 00:38:40;;;;;;;8.73;4.10;;;11.70;99.90;;;;;;5016550;28;20032;-67
2023/03/20 00:41:37;;;;;;;8.45;3.90;;;11.80;99.90;;;;;;5017185;28;20030;-67
2023/03/20 00:44:30;;;;;;;5.55;3.60;;;11.70;99.90;;;;;;5016210;28;20025;-67
2023/03/20 00:46:59;;;;;;;6.28;3.53;;;11.60;99.90;;;;;;5016657;28;20038;-67
2023/03/20 00:49:28;;;;;;;7.30;3.85;;;11.60;99.90;;;;;;5016061;28;20350;-67
2023/03/20 00:51:54;;;;;;;6.93;3.85;;;11.40;99.90;;;;;;5016145;28;20026;-69
2023/03/20 00:54:19;;;;;;;9.15;3.95;;;11.50;99.90;;;;;;5017051;28;20133;-69
2023/03/20 00:56:54;;;;;;;10.20;4.43;;;11.70;99.90;;;;;;5016081;28;20030;-69
2023/03/20 00:59:23;;;;;;;8.75;4.38;;;11.80;99.90;;;;;;5020575;28;20058;-69
2023/03/20 01:01:49;;;;;;;8.93;4.03;;;11.90;99.90;;;;;;5021043;28;20026;-69
2023/03/20 01:04:18;;;;;;;6.82;4.43;;;11.80;99.90;;;;;;5021087;28;20116;-69
2023/03/20 01:06:44;;;;;;;6.70;3.92;;;11.80;99.90;;;;;;5019912;28;20116;-69
2023/03/20 01:09:10;;;;;;;7.15;4.22;;;11.80;99.90;;;;;;5020573;28;20033;-69
2023/03/20 01:11:36;;;;;;;6.05;4.28;;;11.80;99.90;;;;;;5019929;28;20026;-69
2023/03/20 01:14:02;;;;;;;6.38;3.95;;;11.70;99.90;;;;;;5020942;28;20022;-68
2023/03/20 01:16:29;;;;;;;10.63;4.10;;;11.70;99.90;;;;;;5019838;28;20034;-67
2023/03/20 01:18:54;;;;;;;10.23;4.15;;;11.70;99.90;;;;;;5019738;28;20097;-67
2023/03/20 01:21:20;;;;;;;5.47;3.83;;;11.70;99.90;;;;;;5019625;28;20061;-67
2023/03/20 01:23:48;;;;;;;11.10;4.55;;;11.70;99.90;;;;;;5020866;28;20075;-67
2023/03/20 01:26:26;;;;;;;6.78;4.35;;;11.70;99.90;;;;;;5019838;28;20054;-67
2023/03/20 01:28:51;;;;;;;8.60;4.10;;;11.70;99.90;;;;;;5019581;28;20030;-67
2023/03/20 01:31:18;;;;;;;8.25;4.05;;;11.70;99.90;;;;;;5019458;28;20026;-67
2023/03/20 01:33:44;;;;;;;7.38;4.18;;;11.70;99.90;;;;;;5019645;28;20022;-67
2023/03/20 01:36:11;;;;;;;7.40;4.78;;;11.60;99.90;;;;;;5020370;28;20018;-68
2023/03/20 01:38:37;;;;;;;9.35;4.38;;;11.60;99.90;;;;;;5020182;28;20050;-67
2023/03/20 01:41:06;;;;;;;7.68;5.13;;;11.40;99.90;;;;;;5020517;28;20022;-67
2023/03/20 01:43:33;;;;;;;13.23;6.25;;;11.40;99.90;;;;;;5019345;28;20022;-67
2023/03/20 01:46:16;;;;;;;9.02;5.25;;;11.40;99.90;;;;;;5019095;28;20022;-67
2023/03/20 01:48:56;;;;;;;6.72;4.10;;;11.40;99.90;;;;;;5019109;28;20076;-67
2023/03/20 01:51:27;;;;;;;9.82;4.50;;;11.30;99.90;;;;;;5019883;28;20103;-67
2023/03/20 01:54:07;;;;;;;6.70;4.25;;;11.30;99.90;;;;;;5019513;28;20045;-67
2023/03/20 01:56:39;;;;;;;8.05;5.05;;;11.20;99.90;;;;;;5020058;28;20018;-67
2023/03/20 01:59:20;;;;;;;8.00;4.32;;;11.10;99.90;;;;;;5020115;28;20100;-67
2023/03/20 02:01:46;;;;;;;8.48;4.88;;;11.10;99.90;;;;;;5019038;28;20040;-67
2023/03/20 02:04:13;;;;;;;11.80;5.10;;;10.90;99.90;;;;;;5018921;28;20037;-67
2023/03/20 02:06:40;;;;;;;11.00;5.03;;;10.80;99.90;;;;;;5018730;28;20030;-67
2023/03/20 02:09:07;;;;;;;8.98;5.13;;;10.80;99.90;;;;;;5017984;28;20072;-67
2023/03/20 02:11:33;;;;;;;11.02;5.03;;;10.70;99.90;;;;;;5018729;28;20026;-67
2023/03/20 02:14:00;;;;;;;8.98;4.85;;;10.70;99.90;;;;;;5019827;28;20053;-67
2023/03/20 02:16:26;;;;;;;9.13;5.15;;;10.70;99.90;;;;;;5019249;28;20030;-67
2023/03/20 02:18:55;;;;;;;10.90;5.53;;;10.60;99.90;;;;;;5018734;28;20026;-67
2023/03/20 02:21:41;;;;;;;8.05;4.97;;;10.60;99.90;;;;;;5018592;28;20024;-67
2023/03/20 02:24:35;;;;;;;6.97;4.68;;;10.50;99.90;;;;;;5018810;28;20028;-67
2023/03/20 02:27:29;;;;;;;9.50;5.38;;;10.60;99.90;;;;;;5018725;28;20033;-67
2023/03/20 02:30:00;;;;;;;7.97;5.13;;;10.50;99.90;;;;;;5019283;28;20029;-67
2023/03/20 02:32:43;;;;;;;9.85;5.28;;;10.60;99.90;;;;;;5018668;28;20104;-67
2023/03/20 02:35:24;;;;;;;10.63;5.70;;;10.60;99.90;;;;;;5019032;28;20061;-67
2023/03/20 02:38:17;;;;;;;11.65;6.05;;;10.70;99.90;;;;;;5018321;28;20026;-67
2023/03/20 02:40:54;;;;;;;11.13;6.15;;;10.70;99.90;;;;;;5018943;28;20037;-67
2023/03/20 02:43:30;;;;;;;10.20;5.75;;;10.90;99.90;;;;;;5018316;28;20037;-67
2023/03/20 02:46:08;;;;;;;10.88;5.45;;;11.00;99.90;;;;;;5018621;28;20121;-67
2023/03/20 02:48:56;;;;;;;10.57;5.85;;;11.30;99.90;;;;;;5018057;28;20026;-67
2023/03/20 02:51:56;;;;;;;10.45;6.00;;;11.20;99.90;;;;;;5018075;28;20030;-67
2023/03/20 02:54:53;;;;;;;9.65;5.78;;;11.30;99.90;;;;;;5018835;28;20022;-67
2023/03/20 02:57:26;;;;;;;9.73;5.07;;;11.30;99.90;;;;;;5018148;28;20049;-67
2023/03/20 03:00:07;;;;;;;13.25;6.03;;;11.30;99.90;;;;;;5017891;28;20026;-67
2023/03/20 03:02:39;;;;;;;9.27;6.05;;;11.30;99.90;;;;;;5018593;28;20121;-68
2023/03/20 03:05:30;;;;;;;11.63;5.20;;;11.30;99.90;;;;;;5017644;28;20033;-67
2023/03/20 03:07:59;;;;;;;10.80;5.60;;;11.30;99.90;;;;;;5018101;28;20100;-67
2023/03/20 03:10:57;;;;;;;11.93;6.35;;;11.40;99.90;;;;;;5017871;28;20042;-67
2023/03/20 03:13:28;;;;;;;10.35;5.60;;;11.40;99.90;;;;;;5017744;28;20029;-67
2023/03/20 03:16:01;;;;;;;12.88;5.53;;;11.40;99.90;;;;;;5017613;28;20034;-67
2023/03/20 03:18:28;;;;;;;10.30;6.18;;;11.40;99.90;;;;;;5018541;28;20026;-67
2023/03/20 03:20:58;;;;;;;10.35;5.75;;;11.60;99.90;;;;;;5017286;28;20022;-67
2023/03/20 03:23:28;;;;;;;12.18;6.35;;;11.50;99.90;;;;;;5018455;28;20124;-67
2023/03/20 03:25:57;;;;;;;13.10;6.60;;;11.50;99.90;;;;;;5017633;28;20041;-67
2023/03/20 03:28:38;;;;;;;14.73;6.30;;;11.40;99.90;;;;;;5017577;28;20030;-67
2023/03/20 03:31:07;;;;;;;14.48;6.55;;;11.50;99.90;;;;;;5017362;28;20025;-67
2023/03/20 03:33:36;;;;;;;10.48;6.15;;;11.50;99.90;;;;;;5018144;28;20029;-67
2023/03/20 03:36:23;;;;;;;14.80;7.07;;;11.50;99.90;;;;;;5017386;28;20053;-67
2023/03/20 03:39:22;;;;;;;16.58;6.85;;;11.60;99.90;;;;;;5018043;28;20017;-67
2023/03/20 03:42:13;;;;;;;12.35;6.20;;;11.60;99.90;;;;;;5017619;28;20029;-67
2023/03/20 03:45:02;;;;;;;12.85;6.70;;;11.60;99.90;;;;;;5018038;28;20075;-67
2023/03/20 03:47:34;;;;;;;11.80;6.63;;;11.60;99.90;;;;;;5017699;28;20064;-67
2023/03/20 03:50:06;;;;;;;11.68;6.82;;;11.50;99.90;;;;;;5017866;28;20025;-67
2023/03/20 03:52:32;;;;;;;;;;;11.40;99.90;;;;;;5017564;28;20133;-67
2023/03/20 03:55:29;;;;;;;16.75;6.43;;;11.40;99.90;;;;;;5017739;28;19912;-67
2023/03/20 03:58:02;;;;;;;13.68;7.28;;;11.50;99.90;;;;;;5017681;28;20018;-67
2023/03/20 04:00:28;;;;;;;14.80;6.82;;;11.50;99.90;;;;;;5018045;28;20041;-67
2023/03/20 04:02:56;;;;;;;15.20;7.95;;;11.50;99.90;;;;;;5017112;28;20029;-67
2023/03/20 04:05:26;;;;;;;17.00;8.93;;;11.40;99.90;;;;;;5016744;28;20033;-67
2023/03/20 04:07:55;;;;;;;15.80;7.95;;;11.30;99.90;;;;;;5016792;28;20030;-67
2023/03/20 04:10:20;;;;;;;18.02;9.45;;;11.40;99.90;;;;;;5016578;28;20026;-67
2023/03/20 04:12:46;;;;;;;15.15;8.68;;;11.30;99.90;;;;;;5016626;28;20014;-67
2023/03/20 04:15:13;;;;;;;21.83;8.98;;;11.30;99.90;;;;;;5017248;28;20033;-67
2023/03/20 04:17:39;;;;;;;18.55;8.95;;;11.40;99.90;;;;;;5017329;28;20021;-67
2023/03/20 04:20:05;;;;;;;21.50;10.10;;;11.40;99.90;;;;;;5016509;28;20087;-67
2023/03/20 04:22:33;;;;;;;18.98;10.20;;;11.50;99.90;;;;;;5016567;28;20029;-67
2023/03/20 04:24:59;;;;;;;19.15;9.32;;;11.40;99.90;;;;;;5016283;28;20022;-67
2023/03/20 04:27:25;;;;;;;20.23;8.88;;;11.50;99.90;;;;;;5016494;28;20113;-67
2023/03/20 04:29:50;;;;;;;28.13;10.95;;;11.40;99.90;;;;;;5016629;28;20118;-67
2023/03/20 04:32:16;;;;;;;23.75;10.30;;;11.50;99.90;;;;;;5015896;28;20022;-67
2023/03/20 04:34:41;;;;;;;36.83;13.13;;;11.40;99.90;;;;;;5016251;28;20022;-67
2023/03/20 04:37:07;;;;;;;37.13;13.35;;;11.30;99.90;;;;;;5016282;28;20022;-67
2023/03/20 04:39:34;;;;;;;47.55;15.75;;;11.30;99.90;;;;;;5016762;28;20033;-67
2023/03/20 04:41:59;;;;;;;35.75;13.05;;;11.20;99.90;;;;;;5017141;28;20033;-67
2023/03/20 04:44:25;;;;;;;47.13;14.93;;;11.10;99.90;;;;;;5016431;28;20037;-67
2023/03/20 04:46:50;;;;;;;41.13;13.85;;;11.00;99.90;;;;;;5017084;28;20026;-67
2023/03/20 04:49:16;;;;;;;47.22;14.90;;;11.00;99.90;;;;;;5017076;28;20034;-67
2023/03/20 04:51:41;;;;;;;42.60;15.30;;;11.00;99.90;;;;;;5017171;28;20018;-67
2023/03/20 04:54:07;;;;;;;41.90;13.73;;;11.00;99.90;;;;;;5016242;28;20033;-67
2023/03/20 04:56:32;;;;;;;38.10;13.80;;;11.10;99.90;;;;;;5016505;28;20026;-67
2023/03/20 04:58:58;;;;;;;39.85;12.80;;;11.20;99.90;;;;;;5017246;28;20025;-67
2023/03/20 05:01:23;;;;;;;37.58;13.10;;;11.10;99.90;;;;;;5016199;28;20033;-67
2023/03/20 05:03:49;;;;;;;37.85;13.68;;;11.00;99.90;;;;;;5016901;28;20026;-67
2023/03/20 05:06:15;;;;;;;36.67;13.15;;;11.10;99.90;;;;;;5016886;28;20026;-67
2023/03/20 05:08:40;;;;;;;38.88;13.38;;;11.20;99.90;;;;;;5016401;28;20026;-67
2023/03/20 05:11:07;;;;;;;37.13;12.73;;;11.20;99.90;;;;;;5016745;28;20030;-67
2023/03/20 05:13:32;;;;;;;38.17;13.82;;;11.10;99.90;;;;;;5016906;28;20045;-67
2023/03/20 05:15:58;;;;;;;34.40;13.80;;;11.00;99.90;;;;;;5016687;28;20037;-67
2023/03/20 05:18:24;;;;;;;33.65;12.45;;;11.10;99.90;;;;;;5016810;28;20042;-67
2023/03/20 05:20:49;;;;;;;30.77;12.82;;;11.00;99.90;;;;;;5015877;28;20036;-67
2023/03/20 05:23:15;;;;;;;35.35;13.30;;;11.00;99.90;;;;;;5016068;28;20037;-67
2023/03/20 05:25:40;;;;;;;32.30;11.45;;;11.00;99.90;;;;;;5016753;28;20033;-67
2023/03/20 05:28:06;;;;;;;30.58;11.57;;;11.00;99.90;;;;;;5015941;28;20030;-67
2023/03/20 05:30:32;;;;;;;35.45;13.70;;;11.00;99.90;;;;;;5015783;28;20041;-67
2023/03/20 05:32:58;;;;;;;37.05;14.18;;;10.90;99.90;;;;;;5016673;28;20027;-67
2023/03/20 05:35:23;;;;;;;33.50;13.20;;;10.90;99.90;;;;;;5015854;28;20072;-67
2023/03/20 05:37:49;;;;;;;37.30;13.50;;;10.90;99.90;;;;;;5016263;28;20033;-67
2023/03/20 05:40:15;;;;;;;39.30;12.48;;;10.90;99.90;;;;;;5017275;28;20050;-67
2023/03/20 05:42:41;;;;;;;36.75;12.13;;;11.00;99.90;;;;;;5016635;28;20025;-67
2023/03/20 05:45:07;;;;;;;28.92;11.75;;;11.00;99.90;;;;;;5017850;28;20033;-68
2023/03/20 05:47:33;;;;;;;34.03;12.35;;;11.10;99.90;;;;;;5020165;28;20029;-68
2023/03/20 05:49:59;;;;;;;34.53;12.35;;;11.20;99.90;;;;;;5019031;28;20022;-67
2023/03/20 05:52:25;;;;;;;36.85;13.18;;;11.20;99.90;;;;;;5020191;28;20071;-67
2023/03/20 05:54:51;;;;;;;30.60;12.32;;;11.20;99.90;;;;;;5019929;28;20018;-67
2023/03/20 05:57:16;;;;;;;37.28;13.40;;;11.10;99.90;;;;;;5020189;28;20164;-67
2023/03/20 05:59:43;;;;;;;32.53;12.00;;;11.20;99.90;;;;;;5019074;28;20061;-67
2023/03/20 06:02:09;;;;;;;33.63;13.82;;;11.20;99.90;;;;;;5018908;28;20026;-67
2023/03/20 06:04:36;;;;;;;35.85;13.30;;;11.20;99.90;;;;;;5019281;28;20086;-67
2023/03/20 06:07:02;;;;;;;36.47;13.52;;;11.20;99.90;;;;;;5019668;28;20071;-67
2023/03/20 06:09:27;;;;;;;35.33;13.68;;;11.10;99.90;;;;;;5019470;28;20121;-67
2023/03/20 06:11:53;;;;;;;36.47;13.05;;;11.00;99.90;;;;;;5019347;28;20018;-67
2023/03/20 06:14:18;;;;;;;30.17;12.15;;;11.00;99.90;;;;;;5018654;28;20026;-67
2023/03/20 06:16:44;;;;;;;35.17;12.93;;;11.00;99.90;;;;;;5042422;22;20041;-64
2023/03/20 06:19:10;;;;;;;36.47;12.65;;;11.10;99.90;;;;;;5035471;28;20094;-65
2023/03/20 06:21:36;;;;;;;35.60;12.75;;;11.20;99.90;;;;;;5019602;28;20050;-65
2023/03/20 06:24:01;;;;;;;29.42;12.05;;;11.10;99.90;;;;;;5035069;28;20062;-65
2023/03/20 06:26:27;;;;;;;36.50;13.40;;;11.10;99.90;;;;;;5034957;28;20113;-64
2023/03/20 06:28:52;;;;;;;25.33;11.68;;;11.00;99.90;;;;;;5035420;28;20022;-65
2023/03/20 06:31:18;;;;;;;26.42;11.43;;;11.10;99.90;;;;;;5034957;28;20018;-65
2023/03/20 06:33:44;;;;;;;31.83;12.30;;;11.10;99.90;;;;;;5019583;28;20018;-65
2023/03/20 06:36:10;;;;;;;29.38;12.00;;;11.20;99.90;;;;;;5019460;28;20022;-65
2023/03/20 06:38:35;;;;;;;29.23;11.57;;;11.10;99.90;;;;;;5035336;28;20072;-65
2023/03/20 06:41:01;;;;;;;39.47;12.95;;;11.10;99.90;;;;;;5035155;28;20026;-65
2023/03/20 06:43:26;;;;;;;33.75;11.95;;;11.00;99.90;;;;;;5018223;28;20032;-67
2023/03/20 06:45:52;;;;;;;30.92;11.48;;;11.00;99.90;;;;;;5018924;28;20057;-65
2023/03/20 06:48:20;;;;;;;33.50;11.07;;;11.00;99.90;;;;;;5018506;28;20034;-65
2023/03/20 06:50:50;;;;;;;31.08;12.38;;;10.90;99.90;;;;;;5018065;28;20022;-65
2023/03/20 06:53:16;;;;;;;31.33;11.70;;;10.90;99.90;;;;;;5017942;28;20022;-65
2023/03/20 06:55:42;;;;;;;30.83;11.93;;;11.00;99.90;;;;;;5017393;28;20024;-65
2023/03/20 06:58:08;;;;;;;34.05;11.43;;;11.10;99.90;;;;;;5018169;28;20046;-66
2023/03/20 07:00:33;;;;;;;33.70;12.88;;;11.00;99.90;;;;;;5018557;28;20057;-66
2023/03/20 07:02:59;;;;;;;34.80;13.98;;;11.00;99.90;;;;;;5017956;28;20029;-65
2023/03/20 07:05:25;;;;;;;34.00;13.57;;;10.90;99.90;;;;;;5017614;28;20030;-66
2023/03/20 07:07:50;;;;;;;27.05;12.50;;;10.90;99.90;;;;;;5018766;28;20030;-66
2023/03/20 07:10:16;;;;;;;32.70;13.20;;;11.10;99.90;;;;;;5017981;28;20069;-66
2023/03/20 07:12:42;;;;;;;33.72;13.20;;;11.10;99.90;;;;;;5017898;28;20049;-66
2023/03/20 07:15:10;;;;;;;32.92;12.13;;;11.20;99.90;;;;;;5018905;28;20022;-66
2023/03/20 07:17:36;;;;;;;38.65;14.57;;;11.40;99.90;;;;;;5017453;28;20032;-66
2023/03/20 07:20:02;;;;;;;34.97;13.23;;;11.20;99.90;;;;;;5017558;28;20113;-66
2023/03/20 07:22:30;;;;;;;36.60;14.68;;;11.20;99.90;;;;;;5017668;28;20026;-65
2023/03/20 07:24:56;;;;;;;37.60;14.05;;;11.20;99.90;;;;;;5017278;28;20029;-65
2023/03/20 07:27:22;;;;;;;39.55;15.55;;;11.40;99.90;;;;;;5018177;28;20112;-65
2023/03/20 07:29:48;;;;;;;42.13;16.40;;;11.40;99.90;;;;;;5017308;28;20168;-66
2023/03/20 07:32:14;;;;;;;32.55;14.68;;;11.30;99.90;;;;;;5017670;28;20018;-65
2023/03/20 07:34:39;;;;;;;42.50;16.52;;;11.40;99.90;;;;;;5017624;28;20018;-65
2023/03/20 07:37:06;;;;;;;41.50;17.27;;;11.40;99.90;;;;;;5017409;28;20025;-65
2023/03/20 07:39:31;;;;;;;45.10;16.85;;;11.50;99.90;;;;;;5017362;28;20026;-65
2023/03/20 07:41:57;;;;;;;44.53;16.42;;;11.40;99.90;;;;;;5018118;28;20029;-64
2023/03/20 07:44:22;;;;;;;38.45;14.98;;;11.30;99.90;;;;;;5017460;28;20061;-64
2023/03/20 07:46:48;;;;;;;45.10;17.30;;;11.30;99.90;;;;;;5016940;28;20025;-65
2023/03/20 07:49:17;;;;;;;38.40;15.52;;;11.30;99.90;;;;;;5018293;28;20041;-64
2023/03/20 07:51:43;;;;;;;39.58;14.57;;;11.30;99.90;;;;;;5018041;28;20019;-65
2023/03/20 07:54:09;;;;;;;35.17;14.55;;;11.40;99.90;;;;;;5016976;28;20029;-65
2023/03/20 07:56:34;;;;;;;34.10;14.65;;;11.40;99.90;;;;;;5016781;28;20025;-65
2023/03/20 07:59:00;;;;;;;37.67;15.23;;;11.30;99.90;;;;;;5017370;28;20022;-66
2023/03/20 08:01:25;;;;;;;39.03;15.15;;;11.20;99.90;;;;;;5016774;28;20065;-65
2023/03/20 08:03:51;;;;;;;33.67;14.75;;;11.20;99.90;;;;;;5017770;28;20018;-66
2023/03/20 08:06:16;;;;;;;34.70;13.48;;;11.20;99.90;;;;;;5016918;28;20072;-65
2023/03/20 08:08:43;;;;;;;36.28;15.43;;;11.30;99.90;;;;;;5016035;28;20018;-65
2023/03/20 08:11:09;;;;;;;34.75;13.93;;;11.30;99.90;;;;;;5016939;28;20036;-66
2023/03/20 08:13:35;;;;;;;38.30;14.55;;;11.40;99.90;;;;;;5017796;28;20021;-65
2023/03/20 08:16:00;;;;;;;36.38;14.93;;;11.60;99.90;;;;;;5016745;28;20049;-65
2023/03/20 08:18:26;;;;;;;35.75;14.70;;;11.60;99.90;;;;;;5016583;28;20022;-64
2023/03/20 08:20:51;;;;;;;37.15;15.32;;;11.60;99.90;;;;;;5016784;28;20080;-64
2023/03/20 08:23:17;;;;;;;30.85;12.77;;;11.70;99.90;;;;;;5017622;28;20030;-64
2023/03/20 08:25:48;;;;;;;32.45;13.18;;;11.80;99.90;;;;;;5017303;28;20021;-64
2023/03/20 08:28:13;;;;;;;33.65;13.13;;;11.70;99.90;;;;;;5017180;28;20030;-64
2023/03/20 08:30:39;;;;;;;35.15;14.43;;;11.70;99.90;;;;;;5016534;28;20026;-65
2023/03/20 08:33:05;;;;;;;34.83;14.25;;;11.80;99.90;;;;;;5017125;28;20025;-64
2023/03/20 08:35:31;;;;;;;34.75;14.30;;;11.80;99.90;;;;;;5016471;28;20025;-64
2023/03/20 08:37:56;;;;;;;28.42;12.65;;;11.80;99.90;;;;;;5016671;28;20037;-64
2023/03/20 08:40:22;;;;;;;29.20;11.55;;;11.80;99.90;;;;;;5016452;28;20029;-64
2023/03/20 08:42:48;;;;;;;28.70;12.73;;;11.70;99.90;;;;;;5016303;28;20057;-64
2023/03/20 08:45:14;;;;;;;32.72;13.35;;;11.60;99.90;;;;;;5016802;28;20033;-66
2023/03/20 08:47:39;;;;;;;26.13;11.45;;;11.60;99.90;;;;;;5016228;28;20036;-66
2023/03/20 08:50:06;;;;;;;28.48;11.52;;;11.60;99.90;;;;;;5016088;28;20026;-66
2023/03/20 08:52:32;;;;;;;29.75;12.30;;;11.60;99.90;;;;;;5017112;28;20106;-66
2023/03/20 08:54:57;;;;;;;33.08;13.13;;;11.70;99.90;;;;;;5016071;28;20076;-66
2023/03/20 08:57:23;;;;;;;30.63;12.02;;;11.80;99.90;;;;;;5016431;28;20030;-66
2023/03/20 08:59:49;;;;;;;32.35;12.90;;;11.90;99.90;;;;;;5017216;28;20025;-66
2023/03/20 09:02:15;;;;;;;28.75;13.35;;;12.00;99.90;;;;;;5017065;28;20021;-66
2023/03/20 09:04:40;;;;;;;31.45;12.73;;;12.20;99.90;;;;;;5017069;28;20029;-66
2023/03/20 09:07:06;;;;;;;28.20;13.27;;;12.30;99.90;;;;;;5016343;28;20026;-66
2023/03/20 09:09:32;;;;;;;29.95;12.23;;;12.50;99.90;;;;;;5016830;28;20030;-66
2023/03/20 09:11:58;;;;;;;28.92;13.02;;;12.50;99.90;;;;;;5017237;28;20022;-66
2023/03/20 09:14:25;;;;;;;27.30;12.30;;;12.50;99.90;;;;;;5016905;28;20018;-66
2023/03/20 09:16:51;;;;;;;30.45;12.80;;;12.50;99.90;;;;;;5017330;28;20098;-66
2023/03/20 09:19:18;;;;;;;25.10;11.48;;;12.50;99.90;;;;;;5018578;28;20115;-66
2023/03/20 09:21:43;;;;;;;29.05;12.00;;;12.50;99.90;;;;;;5019666;28;20032;-66
2023/03/20 09:24:10;;;;;;;24.98;11.27;;;12.50;99.90;;;;;;5019480;28;20026;-66
2023/03/20 09:26:36;;;;;;;20.85;9.23;;;12.50;99.90;;;;;;5019691;28;20022;-66
2023/03/20 09:29:03;;;;;;;21.30;8.35;;;12.70;99.90;;;;;;5020359;28;20017;-66
2023/03/20 09:31:28;;;;;;;18.38;8.60;;;12.80;99.90;;;;;;5019497;28;20109;-66
2023/03/20 09:33:54;;;;;;;16.52;8.38;;;12.60;99.90;;;;;;5019777;28;20076;-66
2023/03/20 09:36:20;;;;;;;18.85;8.30;;;12.70;99.90;;;;;;5020366;28;20046;-66
2023/03/20 09:38:45;;;;;;;20.08;9.15;;;12.70;99.90;;;;;;5019364;28;20030;-66
2023/03/20 09:41:21;;;;;;;21.75;9.65;;;12.90;99.90;;;;;;5019402;28;20113;-66
2023/03/20 09:43:57;;;;;;;20.17;9.75;;;12.90;99.90;;;;;;5019110;28;20021;-66
2023/03/20 09:46:57;;;;;;;21.10;9.75;;;12.90;99.90;;;;;;5019758;28;20021;-66
2023/03/20 09:49:40;;;;;;;23.02;9.65;;;12.70;99.90;;;;;;5004723;28;20089;-66
2023/03/20 09:52:19;;;;;;;19.75;9.80;;;12.70;99.90;;;;;;5019144;28;20026;-66
2023/03/20 09:54:50;;;;;;;19.50;9.32;;;12.60;99.90;;;;;;5020392;28;20018;-66
2023/03/20 09:57:44;;;;;;;22.95;10.02;;;12.70;99.90;;;;;;5019878;28;20022;-66
2023/03/20 10:00:31;;;;;;;18.67;9.27;;;12.70;99.90;;;;;;5019086;28;20053;-66
2023/03/20 10:03:06;;;;;;;24.02;9.55;;;12.90;99.90;;;;;;5019983;28;20030;-66
2023/03/20 10:05:37;;;;;;;18.80;10.02;;;12.90;99.90;;;;;;5019880;28;20028;-66
2023/03/20 10:08:04;;;;;;;;;;;12.80;99.90;;;;;;5019474;28;20026;-66
2023/03/20 10:10:45;;;;;;;15.90;8.73;;;12.80;99.90;;;;;;5019860;28;19913;-66
2023/03/20 10:13:38;;;;;;;18.30;8.20;;;12.70;99.90;;;;;;5019843;28;20026;-66
2023/03/20 10:16:42;;;;;;;21.92;8.98;;;12.80;99.90;;;;;;5018537;28;20026;-66
2023/03/20 10:19:29;;;;;;;15.23;7.22;;;12.60;99.90;;;;;;5019656;28;20104;-66
2023/03/20 10:22:04;;;;;;;19.40;8.57;;;12.60;99.90;;;;;;5019363;28;20018;-66
2023/03/20 10:24:48;;;;;;;20.38;9.68;;;12.70;99.90;;;;;;5019899;28;20074;-66
2023/03/20 10:27:23;;;;;;;16.90;8.05;;;12.70;99.90;;;;;;5018411;28;20033;-66
2023/03/20 10:30:00;;;;;;;16.90;8.40;;;12.60;99.90;;;;;;5018824;28;20026;-66
2023/03/20 10:32:34;;;;;;;26.48;9.73;;;12.50;99.90;;;;;;5018184;28;20025;-66
2023/03/20 10:35:27;;;;;;;21.52;9.43;;;12.70;99.90;;;;;;5018449;28;20018;-66
2023/03/20 10:38:11;;;;;;;18.60;8.15;;;12.80;99.90;;;;;;5019756;28;20029;-66
2023/03/20 10:40:41;;;;;;;18.30;7.60;;;12.80;99.90;;;;;;5018251;28;20116;-66
2023/03/20 10:43:38;;;;;;;19.20;8.30;;;12.70;99.90;;;;;;5018207;28;20022;-67
2023/03/20 10:46:11;;;;;;;21.15;8.32;;;12.60;99.90;;;;;;4943231;29;20041;-67
2023/03/20 10:48:49;;;;;;;16.63;7.53;;;12.60;99.90;;;;;;4959400;29;20035;-67
2023/03/20 10:51:18;;;;;;;15.90;7.25;;;12.60;99.90;;;;;;4943468;29;20074;-67
2023/03/20 10:53:52;;;;;;;15.95;7.65;;;12.60;99.90;;;;;;4942920;29;20021;-67
2023/03/20 10:56:39;;;;;;;21.27;7.43;;;12.70;99.90;;;;;;4942907;29;20028;-67
2023/03/20 10:59:15;;;;;;;18.33;8.13;;;12.80;99.90;;;;;;4959095;29;20023;-67
2023/03/20 11:01:40;;;;;;;16.25;6.75;;;13.10;99.90;;;;;;4959170;29;20043;-67
2023/03/20 11:04:06;;;;;;;13.50;7.10;;;13.30;99.90;;;;;;4942857;29;20036;-67
2023/03/20 11:06:39;;;;;;;17.38;7.57;;;13.30;99.90;;;;;;4942843;29;20083;-67
2023/03/20 11:09:16;;;;;;;17.17;8.27;;;13.40;99.90;;;;;;4942641;29;20042;-67
2023/03/20 11:11:45;;;;;;;16.10;7.95;;;13.80;99.90;;;;;;4942706;29;20023;-67
2023/03/20 11:14:22;;;;;;;15.18;7.40;;;14.30;99.90;;;;;;4942580;29;20098;-67
2023/03/20 11:16:52;;;;;;;18.17;8.05;;;14.80;99.90;;;;;;4942618;29;20043;-67
2023/03/20 11:19:20;;;;;;;14.85;6.80;;;15.10;99.90;;;;;;4942584;29;20027;-67
2023/03/20 11:21:52;;;;;;;15.85;7.22;;;15.20;99.90;;;;;;4973485;28;20048;-67
2023/03/20 11:24:23;;;;;;;15.38;7.00;;;15.20;99.90;;;;;;5018438;28;20029;-67
2023/03/20 11:26:51;;;;;;;18.95;8.02;;;15.30;99.90;;;;;;5017923;28;20028;-67
2023/03/20 11:29:30;;;;;;;15.95;7.65;;;15.40;99.90;;;;;;5018253;28;20026;-67
2023/03/20 11:32:07;;;;;;;14.10;6.63;;;15.60;99.90;;;;;;5018252;28;20033;-67
2023/03/20 11:34:36;;;;;;;15.65;6.90;;;16.20;99.90;;;;;;5017296;28;20022;-67
2023/03/20 11:37:28;;;;;;;13.00;6.95;;;16.20;99.90;;;;;;5017317;28;20054;-67
2023/03/20 11:40:20;;;;;;;13.85;6.75;;;16.30;99.90;;;;;;5017227;28;20025;-67
2023/03/20 11:42:54;;;;;;;12.57;6.45;;;16.20;99.90;;;;;;5017143;28;20030;-67
2023/03/20 11:45:19;;;;;;;12.00;6.78;;;16.30;99.90;;;;;;5018053;28;20096;-67
2023/03/20 11:47:50;;;;;;;16.40;7.43;;;16.20;99.90;;;;;;5016809;28;20073;-67
2023/03/20 11:50:33;;;;;;;13.30;7.30;;;15.90;99.90;;;;;;5018184;28;20029;-67
2023/03/20 11:53:18;;;;;;;12.15;6.72;;;15.50;99.90;;;;;;5017036;28;20088;-67
2023/03/20 11:55:56;;;;;;;13.30;6.82;;;15.10;99.90;;;;;;5016850;28;20026;-67
2023/03/20 11:59:14;;;;;;;13.98;7.10;;;14.80;99.90;;;;;;5017600;28;20057;-67
2023/03/20 12:01:47;;;;;;;14.43;6.57;;;14.70;99.90;;;;;;5016799;28;20120;-67
2023/03/20 12:04:28;;;;;;;12.38;6.05;;;15.00;99.90;;;;;;5017841;28;20022;-67
2023/03/20 12:07:11;;;;;;;12.63;6.27;;;15.20;99.90;;;;;;5016813;28;20052;-67
2023/03/20 12:10:06;;;;;;;11.63;5.70;;;15.60;99.90;;;;;;5017644;28;20022;-67
2023/03/20 12:12:33;;;;;;;9.75;5.43;;;15.90;99.90;;;;;;5017849;28;20056;-67
2023/03/20 12:15:27;;;;;;;9.55;5.05;;;16.30;99.90;;;;;;5017028;28;20112;-67
2023/03/20 12:18:15;;;;;;;10.57;5.50;;;16.20;99.90;;;;;;5017144;28;20057;-66
2023/03/20 12:21:11;;;;;;;13.63;6.30;;;16.00;99.90;;;;;;5016616;28;20052;-66
2023/03/20 12:23:47;;;;;;;12.85;5.72;;;15.80;99.90;;;;;;5017544;28;20018;-66
2023/03/20 12:26:30;;;;;;;10.38;5.53;;;15.60;99.90;;;;;;5016560;28;20056;-66
2023/03/20 12:29:21;;;;;;;13.63;5.28;;;15.70;99.90;;;;;;5017318;28;20029;-66
2023/03/20 12:32:25;;;;;;;13.48;5.60;;;15.70;99.90;;;;;;5016385;28;20026;-66
2023/03/20 12:34:57;;;;;;;9.70;4.78;;;15.80;99.90;;;;;;4957465;29;20066;-66
2023/03/20 12:37:23;;;;;;;10.07;4.47;;;15.50;99.90;;;;;;4941364;29;20042;-66
2023/03/20 12:39:58;;;;;;;10.00;4.57;;;15.40;99.90;;;;;;4941459;29;20024;-67
2023/03/20 12:42:50;;;;;;;7.03;4.30;;;15.20;99.90;;;;;;4941823;29;20042;-67
2023/03/20 12:45:21;;;;;;;9.93;3.80;;;15.30;99.90;;;;;;4957881;29;20033;-66
2023/03/20 12:47:47;;;;;;;;;;;15.40;99.90;;;;;;4941649;29;20024;-67
2023/03/20 12:50:27;;;;;;;7.25;3.83;;;15.40;99.90;;;;;;4957446;29;19910;-66
2023/03/20 12:53:19;;;;;;;6.75;3.80;;;15.50;99.90;;;;;;4941887;28;20019;-66
2023/03/20 12:55:59;;;;;;;7.35;3.65;;;15.40;99.90;;;;;;4945738;29;20067;-66
2023/03/20 12:58:34;;;;;;;6.22;3.70;;;15.30;99.90;;;;;;4961593;29;20027;-66